sensor_id;sensor_type;location;lat;lon;timestamp;pressure;altitude;pressure_sealevel;temperature;humidity
28027;BME280;15344;52.342;-1.290;2023-08-06T00:00:13;99994.26;;;13.95;100.00
28027;BME280;15344;52.342;-1.290;2023-08-06T00:02:39;99993.19;;;12.96;100.00
28027;BME280;15344;52.342;-1.290;2023-08-06T00:05:05;99991.26;;;13.24;100.00
28027;BME280;15344;52.342;-1.290;2023-08-06T00:07:30;99992.27;;;12.91;100.00
28027;BME280;15344;52.342;-1.290;2023-08-06T00:09:55;99992.55;;;14.73;100.00
28027;BME280;15344;52.342;-1.290;2023-08-06T00:12:20;99994.83;;;14.77;100.00
28027;BME280;15344;52.342;-1.290;2023-08-06T00:14:50;100002.43;;;15.31;100.00
28027;BME280;15344;52.342;-1.290;2023-08-06T00:17:11;100002.83;;;13.55;100.00
28027;BME280;15344;52.342;-1.290;2023-08-06T00:19:36;99998.71;;;13.35;100.00
28027;BME280;15344;52.342;-1.290;2023-08-06T00:22:02;99998.04;;;13.71;100.00
28027;BME280;15344;52.342;-1.290;2023-08-06T00:24:27;99999.57;;;13.56;100.00
28027;BME280;15344;52.342;-1.290;2023-08-06T00:26:52;100000.36;;;14.27;100.00
28027;BME280;15344;52.342;-1.290;2023-08-06T00:29:17;100001.27;;;13.92;100.00
28027;BME280;15344;52.342;-1.290;2023-08-06T00:31:43;100004.98;;;14.09;100.00
28027;BME280;15344;52.342;-1.290;2023-08-06T00:34:08;100007.53;;;14.03;100.00
28027;BME280;15344;52.342;-1.290;2023-08-06T00:36:33;100012.53;;;13.60;100.00
28027;BME280;15344;52.342;-1.290;2023-08-06T00:38:59;100014.03;;;15.13;100.00
28027;BME280;15344;52.342;-1.290;2023-08-06T00:41:24;100018.33;;;14.78;100.00
28027;BME280;15344;52.342;-1.290;2023-08-06T00:43:49;100020.06;;;14.88;100.00
28027;BME280;15344;52.342;-1.290;2023-08-06T00:46:14;100020.33;;;15.59;100.00
28027;BME280;15344;52.342;-1.290;2023-08-06T00:48:40;100021.87;;;15.24;100.00
28027;BME280;15344;52.342;-1.290;2023-08-06T00:51:05;100023.78;;;14.57;100.00
28027;BME280;15344;52.342;-1.290;2023-08-06T00:53:30;100027.41;;;14.98;100.00
28027;BME280;15344;52.342;-1.290;2023-08-06T00:55:56;100026.99;;;15.10;100.00
28027;BME280;15344;52.342;-1.290;2023-08-06T00:58:21;100027.25;;;15.11;100.00
28027;BME280;15344;52.342;-1.290;2023-08-06T01:00:46;100033.33;;;15.01;100.00
28027;BME280;15344;52.342;-1.290;2023-08-06T01:03:12;100033.38;;;15.04;100.00
28027;BME280;15344;52.342;-1.290;2023-08-06T01:05:37;100038.51;;;15.05;100.00
28027;BME280;15344;52.342;-1.290;2023-08-06T01:08:15;100042.00;;;14.97;100.00
28027;BME280;15344;52.342;-1.290;2023-08-06T01:10:40;100039.70;;;14.74;100.00
28027;BME280;15344;52.342;-1.290;2023-08-06T01:13:00;100041.27;;;15.29;100.00
28027;BME280;15344;52.342;-1.290;2023-08-06T01:15:21;100042.06;;;14.97;100.00
28027;BME280;15344;52.342;-1.290;2023-08-06T01:17:45;100044.30;;;15.23;100.00
28027;BME280;15344;52.342;-1.290;2023-08-06T01:20:09;100043.58;;;14.49;100.00
28027;BME280;15344;52.342;-1.290;2023-08-06T01:22:34;100044.90;;;14.02;100.00
28027;BME280;15344;52.342;-1.290;2023-08-06T01:24:59;100043.89;;;14.76;100.00
28027;BME280;15344;52.342;-1.290;2023-08-06T01:27:28;100045.80;;;15.24;100.00
28027;BME280;15344;52.342;-1.290;2023-08-06T01:29:56;100049.16;;;14.99;100.00
28027;BME280;15344;52.342;-1.290;2023-08-06T01:32:15;100047.97;;;14.83;100.00
28027;BME280;15344;52.342;-1.290;2023-08-06T01:34:42;100057.33;;;14.99;100.00
28027;BME280;15344;52.342;-1.290;2023-08-06T01:37:06;100063.01;;;15.53;100.00
28027;BME280;15344;52.342;-1.290;2023-08-06T01:39:33;100071.20;;;14.51;100.00
28027;BME280;15344;52.342;-1.290;2023-08-06T01:41:56;100070.08;;;15.14;100.00
28027;BME280;15344;52.342;-1.290;2023-08-06T01:44:21;100073.29;;;14.67;100.00
28027;BME280;15344;52.342;-1.290;2023-08-06T01:46:47;100077.44;;;15.11;100.00
28027;BME280;15344;52.342;-1.290;2023-08-06T01:49:12;100084.17;;;15.02;100.00
28027;BME280;15344;52.342;-1.290;2023-08-06T01:51:37;100089.40;;;14.29;100.00
28027;BME280;15344;52.342;-1.290;2023-08-06T01:54:03;100088.00;;;15.10;100.00
28027;BME280;15344;52.342;-1.290;2023-08-06T01:56:28;100089.59;;;15.25;100.00
28027;BME280;15344;52.342;-1.290;2023-08-06T01:58:53;100091.68;;;15.31;100.00
28027;BME280;15344;52.342;-1.290;2023-08-06T02:01:19;100096.50;;;14.97;100.00
28027;BME280;15344;52.342;-1.290;2023-08-06T02:03:44;100096.04;;;15.33;100.00
28027;BME280;15344;52.342;-1.290;2023-08-06T02:06:10;100092.77;;;15.23;100.00
28027;BME280;15344;52.342;-1.290;2023-08-06T02:08:35;100092.60;;;15.38;99.65
28027;BME280;15344;52.342;-1.290;2023-08-06T02:11:00;100093.58;;;15.74;97.93
28027;BME280;15344;52.342;-1.290;2023-08-06T02:13:25;100094.76;;;15.66;98.13
28027;BME280;15344;52.342;-1.290;2023-08-06T02:15:51;100097.38;;;15.50;97.46
28027;BME280;15344;52.342;-1.290;2023-08-06T02:18:16;100098.68;;;14.16;100.00
28027;BME280;15344;52.342;-1.290;2023-08-06T02:20:42;100097.45;;;15.10;100.00
28027;BME280;15344;52.342;-1.290;2023-08-06T02:23:07;100098.41;;;15.39;98.61
28027;BME280;15344;52.342;-1.290;2023-08-06T02:25:32;100091.88;;;15.31;98.81
28027;BME280;15344;52.342;-1.290;2023-08-06T02:27:58;100091.43;;;15.25;98.93
28027;BME280;15344;52.342;-1.290;2023-08-06T02:30:23;100094.34;;;13.88;100.00
28027;BME280;15344;52.342;-1.290;2023-08-06T02:32:49;100091.15;;;15.40;99.62
28027;BME280;15344;52.342;-1.290;2023-08-06T02:35:15;100093.88;;;14.82;100.00
28027;BME280;15344;52.342;-1.290;2023-08-06T02:37:39;100095.47;;;14.94;99.33
28027;BME280;15344;52.342;-1.290;2023-08-06T02:40:06;100094.99;;;14.75;99.63
28027;BME280;15344;52.342;-1.290;2023-08-06T02:42:30;100096.25;;;15.01;99.50
28027;BME280;15344;52.342;-1.290;2023-08-06T02:44:56;100094.59;;;14.96;99.67
28027;BME280;15344;52.342;-1.290;2023-08-06T02:47:21;100094.16;;;15.34;97.45
28027;BME280;15344;52.342;-1.290;2023-08-06T02:49:46;100098.83;;;15.24;97.73
28027;BME280;15344;52.342;-1.290;2023-08-06T02:52:12;100099.02;;;14.52;99.06
28027;BME280;15344;52.342;-1.290;2023-08-06T02:54:37;100100.32;;;14.83;98.49
28027;BME280;15344;52.342;-1.290;2023-08-06T02:57:02;100100.61;;;15.08;98.33
28027;BME280;15344;52.342;-1.290;2023-08-06T02:59:27;100105.31;;;14.02;100.00
28027;BME280;15344;52.342;-1.290;2023-08-06T03:01:53;100099.75;;;14.97;98.20
28027;BME280;15344;52.342;-1.290;2023-08-06T03:04:18;100103.88;;;15.06;97.78
28027;BME280;15344;52.342;-1.290;2023-08-06T03:06:43;100099.85;;;15.12;96.19
28027;BME280;15344;52.342;-1.290;2023-08-06T03:09:08;100101.07;;;15.00;97.01
28027;BME280;15344;52.342;-1.290;2023-08-06T03:11:34;100102.60;;;15.19;96.35
28027;BME280;15344;52.342;-1.290;2023-08-06T03:13:59;100106.02;;;15.19;96.53
28027;BME280;15344;52.342;-1.290;2023-08-06T03:16:25;100108.54;;;15.09;96.32
28027;BME280;15344;52.342;-1.290;2023-08-06T03:18:50;100108.10;;;15.14;96.24
28027;BME280;15344;52.342;-1.290;2023-08-06T03:21:15;100110.04;;;15.08;96.52
28027;BME280;15344;52.342;-1.290;2023-08-06T03:23:40;100108.84;;;15.01;97.08
28027;BME280;15344;52.342;-1.290;2023-08-06T03:26:06;100105.66;;;15.35;95.97
28027;BME280;15344;52.342;-1.290;2023-08-06T03:28:31;100105.41;;;15.69;95.47
28027;BME280;15344;52.342;-1.290;2023-08-06T03:31:00;100107.53;;;15.28;96.04
28027;BME280;15344;52.342;-1.290;2023-08-06T03:33:21;100106.54;;;15.31;94.91
28027;BME280;15344;52.342;-1.290;2023-08-06T03:35:46;100106.87;;;15.29;95.30
28027;BME280;15344;52.342;-1.290;2023-08-06T03:38:12;100107.69;;;15.47;94.12
28027;BME280;15344;52.342;-1.290;2023-08-06T03:40:37;100111.27;;;15.30;94.82
28027;BME280;15344;52.342;-1.290;2023-08-06T03:43:02;100104.09;;;15.41;94.83
28027;BME280;15344;52.342;-1.290;2023-08-06T03:45:28;100102.55;;;15.20;95.14
28027;BME280;15344;52.342;-1.290;2023-08-06T03:47:53;100103.44;;;15.43;94.53
28027;BME280;15344;52.342;-1.290;2023-08-06T03:50:18;100100.11;;;15.49;94.61
28027;BME280;15344;52.342;-1.290;2023-08-06T03:52:43;100100.18;;;15.53;94.97
28027;BME280;15344;52.342;-1.290;2023-08-06T03:55:09;100102.08;;;15.53;94.85
28027;BME280;15344;52.342;-1.290;2023-08-06T03:57:34;100100.95;;;15.53;94.27
28027;BME280;15344;52.342;-1.290;2023-08-06T04:00:00;100104.75;;;15.13;97.46
28027;BME280;15344;52.342;-1.290;2023-08-06T04:02:26;100104.17;;;15.61;96.53
28027;BME280;15344;52.342;-1.290;2023-08-06T04:04:51;100104.21;;;15.65;94.95
28027;BME280;15344;52.342;-1.290;2023-08-06T04:07:16;100110.24;;;15.56;94.65
28027;BME280;15344;52.342;-1.290;2023-08-06T04:12:07;100112.77;;;15.30;95.28
28027;BME280;15344;52.342;-1.290;2023-08-06T04:14:32;100116.00;;;15.48;95.32
28027;BME280;15344;52.342;-1.290;2023-08-06T04:16:58;100119.85;;;15.22;95.44
28027;BME280;15344;52.342;-1.290;2023-08-06T04:19:24;100121.98;;;15.35;95.13
28027;BME280;15344;52.342;-1.290;2023-08-06T04:21:49;100120.57;;;14.77;97.62
28027;BME280;15344;52.342;-1.290;2023-08-06T04:24:14;100123.15;;;15.11;96.32
28027;BME280;15344;52.342;-1.290;2023-08-06T04:26:40;100123.20;;;15.57;96.11
28027;BME280;15344;52.342;-1.290;2023-08-06T04:29:04;100126.42;;;14.42;99.34
28027;BME280;15344;52.342;-1.290;2023-08-06T04:31:30;100123.03;;;15.15;96.58
28027;BME280;15344;52.342;-1.290;2023-08-06T04:33:55;100127.71;;;15.17;96.22
28027;BME280;15344;52.342;-1.290;2023-08-06T04:36:20;100127.23;;;14.96;98.60
28027;BME280;15344;52.342;-1.290;2023-08-06T04:38:45;100126.90;;;15.33;96.80
28027;BME280;15344;52.342;-1.290;2023-08-06T04:41:11;100129.99;;;15.57;95.43
28027;BME280;15344;52.342;-1.290;2023-08-06T04:43:36;100135.89;;;15.31;96.66
28027;BME280;15344;52.342;-1.290;2023-08-06T04:46:01;100137.17;;;13.99;100.00
28027;BME280;15344;52.342;-1.290;2023-08-06T04:48:27;100138.69;;;14.98;100.00
28027;BME280;15344;52.342;-1.290;2023-08-06T04:50:52;100146.19;;;14.73;100.00
28027;BME280;15344;52.342;-1.290;2023-08-06T04:53:17;100146.65;;;15.06;100.00
28027;BME280;15344;52.342;-1.290;2023-08-06T04:55:43;100146.11;;;15.49;98.00
28027;BME280;15344;52.342;-1.290;2023-08-06T04:58:10;100150.71;;;14.92;99.49
28027;BME280;15344;52.342;-1.290;2023-08-06T05:00:34;100150.17;;;15.46;98.27
28027;BME280;15344;52.342;-1.290;2023-08-06T05:03:00;100154.77;;;15.62;96.82
28027;BME280;15344;52.342;-1.290;2023-08-06T05:05:25;100159.38;;;15.34;97.98
28027;BME280;15344;52.342;-1.290;2023-08-06T05:07:50;100160.23;;;15.66;97.10
28027;BME280;15344;52.342;-1.290;2023-08-06T05:10:16;100157.72;;;15.34;97.93
28027;BME280;15344;52.342;-1.290;2023-08-06T05:12:41;100161.53;;;15.81;97.10
28027;BME280;15344;52.342;-1.290;2023-08-06T05:15:08;100160.75;;;15.92;96.72
28027;BME280;15344;52.342;-1.290;2023-08-06T05:17:32;100164.49;;;15.83;98.11
28027;BME280;15344;52.342;-1.290;2023-08-06T05:19:57;100168.12;;;15.60;99.05
28027;BME280;15344;52.342;-1.290;2023-08-06T05:22:22;100166.21;;;15.78;98.85
28027;BME280;15344;52.342;-1.290;2023-08-06T05:24:48;100170.18;;;15.48;100.00
28027;BME280;15344;52.342;-1.290;2023-08-06T05:27:13;100167.10;;;15.61;99.41
28027;BME280;15344;52.342;-1.290;2023-08-06T05:29:38;100173.97;;;15.90;98.00
28027;BME280;15344;52.342;-1.290;2023-08-06T05:32:04;100179.94;;;15.14;100.00
28027;BME280;15344;52.342;-1.290;2023-08-06T05:34:29;100183.16;;;15.58;100.00
28027;BME280;15344;52.342;-1.290;2023-08-06T05:36:54;100183.45;;;16.15;98.87
28027;BME280;15344;52.342;-1.290;2023-08-06T05:39:19;100189.56;;;15.97;99.32
28027;BME280;15344;52.342;-1.290;2023-08-06T05:41:45;100186.66;;;15.78;100.00
28027;BME280;15344;52.342;-1.290;2023-08-06T05:44:10;100192.90;;;16.06;100.00
28027;BME280;15344;52.342;-1.290;2023-08-06T05:46:35;100194.49;;;16.03;100.00
28027;BME280;15344;52.342;-1.290;2023-08-06T05:49:01;100196.44;;;15.88;100.00
28027;BME280;15344;52.342;-1.290;2023-08-06T05:51:27;100201.29;;;16.38;100.00
28027;BME280;15344;52.342;-1.290;2023-08-06T05:53:52;100202.36;;;16.32;100.00
28027;BME280;15344;52.342;-1.290;2023-08-06T05:56:17;100202.42;;;16.65;100.00
28027;BME280;15344;52.342;-1.290;2023-08-06T05:58:42;100203.87;;;16.54;100.00
28027;BME280;15344;52.342;-1.290;2023-08-06T06:01:08;100204.61;;;17.07;100.00
28027;BME280;15344;52.342;-1.290;2023-08-06T06:03:33;100207.86;;;16.53;100.00
28027;BME280;15344;52.342;-1.290;2023-08-06T06:05:59;100207.58;;;16.83;100.00
28027;BME280;15344;52.342;-1.290;2023-08-06T06:08:23;100206.61;;;16.56;100.00
28027;BME280;15344;52.342;-1.290;2023-08-06T06:10:48;100210.80;;;16.50;100.00
28027;BME280;15344;52.342;-1.290;2023-08-06T06:13:14;100214.89;;;16.76;100.00
28027;BME280;15344;52.342;-1.290;2023-08-06T06:15:39;100214.45;;;16.11;100.00
28027;BME280;15344;52.342;-1.290;2023-08-06T06:18:04;100218.10;;;16.87;100.00
28027;BME280;15344;52.342;-1.290;2023-08-06T06:20:32;100223.28;;;16.82;100.00
28027;BME280;15344;52.342;-1.290;2023-08-06T06:22:55;100223.48;;;17.37;100.00
28027;BME280;15344;52.342;-1.290;2023-08-06T06:25:20;100224.97;;;17.78;100.00
28027;BME280;15344;52.342;-1.290;2023-08-06T06:27:46;100225.75;;;17.63;99.49
28027;BME280;15344;52.342;-1.290;2023-08-06T06:30:11;100224.32;;;16.61;100.00
28027;BME280;15344;52.342;-1.290;2023-08-06T06:32:36;100226.35;;;17.47;100.00
28027;BME280;15344;52.342;-1.290;2023-08-06T06:35:02;100226.34;;;17.36;100.00
28027;BME280;15344;52.342;-1.290;2023-08-06T06:37:26;100229.18;;;17.58;100.00
28027;BME280;15344;52.342;-1.290;2023-08-06T06:39:52;100235.02;;;17.08;100.00
28027;BME280;15344;52.342;-1.290;2023-08-06T06:42:17;100233.31;;;16.90;100.00
28027;BME280;15344;52.342;-1.290;2023-08-06T06:44:42;100238.57;;;17.12;100.00
28027;BME280;15344;52.342;-1.290;2023-08-06T06:47:07;100234.88;;;17.55;100.00
28027;BME280;15344;52.342;-1.290;2023-08-06T06:49:33;100239.25;;;16.41;100.00
28027;BME280;15344;52.342;-1.290;2023-08-06T06:51:58;100238.61;;;17.28;100.00
28027;BME280;15344;52.342;-1.290;2023-08-06T06:54:23;100239.70;;;17.35;100.00
28027;BME280;15344;52.342;-1.290;2023-08-06T06:56:48;100240.23;;;16.61;100.00
28027;BME280;15344;52.342;-1.290;2023-08-06T06:59:14;100238.83;;;16.86;100.00
28027;BME280;15344;52.342;-1.290;2023-08-06T07:01:39;100241.32;;;17.26;100.00
28027;BME280;15344;52.342;-1.290;2023-08-06T07:04:04;100243.60;;;17.82;100.00
28027;BME280;15344;52.342;-1.290;2023-08-06T07:06:29;100242.57;;;18.12;100.00
28027;BME280;15344;52.342;-1.290;2023-08-06T07:08:54;100245.15;;;17.91;100.00
28027;BME280;15344;52.342;-1.290;2023-08-06T07:11:19;100249.93;;;18.97;97.67
28027;BME280;15344;52.342;-1.290;2023-08-06T07:13:44;100250.01;;;16.96;100.00
28027;BME280;15344;52.342;-1.290;2023-08-06T07:16:10;100245.02;;;18.12;99.20
28027;BME280;15344;52.342;-1.290;2023-08-06T07:18:35;100251.74;;;18.24;100.00
28027;BME280;15344;52.342;-1.290;2023-08-06T07:21:00;100258.61;;;19.07;97.11
28027;BME280;15344;52.342;-1.290;2023-08-06T07:23:26;100257.17;;;18.89;98.63
28027;BME280;15344;52.342;-1.290;2023-08-06T07:25:50;100263.46;;;18.17;99.28
28027;BME280;15344;52.342;-1.290;2023-08-06T07:28:16;100266.33;;;17.85;100.00
28027;BME280;15344;52.342;-1.290;2023-08-06T07:30:42;100265.14;;;18.58;99.14
28027;BME280;15344;52.342;-1.290;2023-08-06T07:33:07;100267.99;;;19.66;95.30
28027;BME280;15344;52.342;-1.290;2023-08-06T07:35:32;100272.60;;;19.22;94.35
28027;BME280;15344;52.342;-1.290;2023-08-06T07:37:57;100272.68;;;19.45;93.26
28027;BME280;15344;52.342;-1.290;2023-08-06T07:40:22;100281.03;;;19.83;92.46
28027;BME280;15344;52.342;-1.290;2023-08-06T07:42:47;100279.88;;;18.63;94.94
28027;BME280;15344;52.342;-1.290;2023-08-06T07:45:14;100276.90;;;18.95;92.72
28027;BME280;15344;52.342;-1.290;2023-08-06T07:47:39;100279.23;;;20.04;89.20
28027;BME280;15344;52.342;-1.290;2023-08-06T07:50:04;100277.63;;;18.24;96.33
28027;BME280;15344;52.342;-1.290;2023-08-06T07:52:29;100283.51;;;19.32;94.17
28027;BME280;15344;52.342;-1.290;2023-08-06T07:54:54;100284.89;;;20.23;89.96
28027;BME280;15344;52.342;-1.290;2023-08-06T07:57:19;100282.92;;;20.27;89.62
28027;BME280;15344;52.342;-1.290;2023-08-06T07:59:44;100278.62;;;21.05;90.22
28027;BME280;15344;52.342;-1.290;2023-08-06T08:02:09;100276.99;;;22.75;81.08
28027;BME280;15344;52.342;-1.290;2023-08-06T08:04:34;100272.55;;;23.51;75.65
28027;BME280;15344;52.342;-1.290;2023-08-06T08:06:59;100275.33;;;24.01;69.29
28027;BME280;15344;52.342;-1.290;2023-08-06T08:09:25;100281.54;;;25.87;72.22
28027;BME280;15344;52.342;-1.290;2023-08-06T08:11:51;100279.96;;;25.61;64.81
28027;BME280;15344;52.342;-1.290;2023-08-06T08:14:17;100281.46;;;25.30;62.13
28027;BME280;15344;52.342;-1.290;2023-08-06T08:16:43;100279.09;;;24.03;62.79
28027;BME280;15344;52.342;-1.290;2023-08-06T08:19:08;100281.05;;;24.32;62.86
28027;BME280;15344;52.342;-1.290;2023-08-06T08:21:34;100284.71;;;24.13;63.93
28027;BME280;15344;52.342;-1.290;2023-08-06T08:24:01;100286.62;;;24.99;59.24
28027;BME280;15344;52.342;-1.290;2023-08-06T08:26:26;100284.60;;;25.38;59.00
28027;BME280;15344;52.342;-1.290;2023-08-06T08:28:52;100287.43;;;25.02;64.74
28027;BME280;15344;52.342;-1.290;2023-08-06T08:31:17;100279.58;;;24.04;61.26
28027;BME280;15344;52.342;-1.290;2023-08-06T08:33:43;100278.79;;;24.75;59.72
28027;BME280;15344;52.342;-1.290;2023-08-06T08:36:09;100283.07;;;25.80;58.29
28027;BME280;15344;52.342;-1.290;2023-08-06T08:38:35;100279.30;;;27.45;53.84
28027;BME280;15344;52.342;-1.290;2023-08-06T08:41:00;100280.81;;;26.37;52.67
28027;BME280;15344;52.342;-1.290;2023-08-06T08:43:27;100286.48;;;25.88;54.76
28027;BME280;15344;52.342;-1.290;2023-08-06T08:45:53;100281.45;;;25.07;58.53
28027;BME280;15344;52.342;-1.290;2023-08-06T08:48:18;100283.03;;;23.67;63.15
28027;BME280;15344;52.342;-1.290;2023-08-06T08:50:45;100284.02;;;25.12;58.81
28027;BME280;15344;52.342;-1.290;2023-08-06T08:53:10;100286.74;;;25.42;55.40
28027;BME280;15344;52.342;-1.290;2023-08-06T08:55:36;100287.30;;;23.95;61.04
28027;BME280;15344;52.342;-1.290;2023-08-06T08:58:01;100289.63;;;23.23;58.44
28027;BME280;15344;52.342;-1.290;2023-08-06T09:00:27;100290.09;;;24.50;59.07
28027;BME280;15344;52.342;-1.290;2023-08-06T09:02:53;100297.31;;;24.11;58.18
28027;BME280;15344;52.342;-1.290;2023-08-06T09:05:18;100302.03;;;23.69;60.63
28027;BME280;15344;52.342;-1.290;2023-08-06T09:07:48;100297.32;;;25.08;55.91
28027;BME280;15344;52.342;-1.290;2023-08-06T09:10:11;100299.16;;;23.37;58.03
28027;BME280;15344;52.342;-1.290;2023-08-06T09:12:35;100303.42;;;25.41;55.25
28027;BME280;15344;52.342;-1.290;2023-08-06T09:15:01;100298.98;;;24.73;58.75
28027;BME280;15344;52.342;-1.290;2023-08-06T09:17:27;100301.35;;;24.58;56.40
28027;BME280;15344;52.342;-1.290;2023-08-06T09:19:53;100307.73;;;25.29;56.56
28027;BME280;15344;52.342;-1.290;2023-08-06T09:22:19;100313.47;;;25.95;55.50
28027;BME280;15344;52.342;-1.290;2023-08-06T09:24:44;100306.73;;;23.91;54.54
28027;BME280;15344;52.342;-1.290;2023-08-06T09:27:11;100313.85;;;24.56;56.68
28027;BME280;15344;52.342;-1.290;2023-08-06T09:29:40;100308.10;;;23.54;57.54
28027;BME280;15344;52.342;-1.290;2023-08-06T09:32:01;100309.65;;;23.74;59.35
28027;BME280;15344;52.342;-1.290;2023-08-06T09:34:27;100307.21;;;22.50;60.38
28027;BME280;15344;52.342;-1.290;2023-08-06T09:36:53;100312.84;;;24.52;60.32
28027;BME280;15344;52.342;-1.290;2023-08-06T09:39:20;100313.10;;;24.28;58.50
28027;BME280;15344;52.342;-1.290;2023-08-06T09:41:45;100312.93;;;24.83;56.26
28027;BME280;15344;52.342;-1.290;2023-08-06T09:44:16;100313.77;;;23.87;61.53
28027;BME280;15344;52.342;-1.290;2023-08-06T09:46:36;100314.06;;;22.47;60.32
28027;BME280;15344;52.342;-1.290;2023-08-06T09:49:02;100319.16;;;23.63;60.59
28027;BME280;15344;52.342;-1.290;2023-08-06T09:51:28;100322.61;;;21.97;63.32
28027;BME280;15344;52.342;-1.290;2023-08-06T09:53:54;100318.47;;;21.92;65.29
28027;BME280;15344;52.342;-1.290;2023-08-06T09:56:20;100324.44;;;21.66;62.01
28027;BME280;15344;52.342;-1.290;2023-08-06T09:58:47;100321.61;;;21.05;65.40
28027;BME280;15344;52.342;-1.290;2023-08-06T10:01:12;100326.38;;;22.51;64.68
28027;BME280;15344;52.342;-1.290;2023-08-06T10:03:37;100332.30;;;22.47;64.17
28027;BME280;15344;52.342;-1.290;2023-08-06T10:06:03;100336.40;;;21.22;66.29
28027;BME280;15344;52.342;-1.290;2023-08-06T10:08:27;100340.90;;;21.61;65.80
28027;BME280;15344;52.342;-1.290;2023-08-06T10:10:52;100342.44;;;21.15;68.07
28027;BME280;15344;52.342;-1.290;2023-08-06T10:13:18;100340.65;;;21.70;66.85
28027;BME280;15344;52.342;-1.290;2023-08-06T10:15:42;100342.75;;;21.70;67.22
28027;BME280;15344;52.342;-1.290;2023-08-06T10:18:08;100347.13;;;21.37;70.43
28027;BME280;15344;52.342;-1.290;2023-08-06T10:20:33;100347.17;;;20.97;71.61
28027;BME280;15344;52.342;-1.290;2023-08-06T10:23:02;100353.65;;;20.70;73.68
28027;BME280;15344;52.342;-1.290;2023-08-06T10:25:24;100355.28;;;20.07;75.72
28027;BME280;15344;52.342;-1.290;2023-08-06T10:27:53;100359.16;;;19.91;76.59
28027;BME280;15344;52.342;-1.290;2023-08-06T10:32:47;100360.65;;;20.36;81.43
28027;BME280;15344;52.342;-1.290;2023-08-06T10:35:04;100364.49;;;20.13;82.48
28027;BME280;15344;52.342;-1.290;2023-08-06T10:37:35;100362.15;;;19.59;81.29
28027;BME280;15344;52.342;-1.290;2023-08-06T10:39:53;100367.27;;;19.72;80.46
28027;BME280;15344;52.342;-1.290;2023-08-06T10:42:21;100369.11;;;19.88;79.87
28027;BME280;15344;52.342;-1.290;2023-08-06T10:49:34;100361.83;;;21.66;77.80
28027;BME280;15344;52.342;-1.290;2023-08-06T10:51:59;100363.85;;;21.85;73.01
28027;BME280;15344;52.342;-1.290;2023-08-06T10:54:24;100362.46;;;21.70;71.09
28027;BME280;15344;52.342;-1.290;2023-08-06T10:56:49;100353.07;;;21.37;71.85
28027;BME280;15344;52.342;-1.290;2023-08-06T10:59:15;100353.88;;;21.46;74.12
28027;BME280;15344;52.342;-1.290;2023-08-06T11:01:39;100357.22;;;21.80;76.61
28027;BME280;15344;52.342;-1.290;2023-08-06T11:04:04;100349.46;;;23.18;74.61
28027;BME280;15344;52.342;-1.290;2023-08-06T11:06:29;100351.07;;;23.71;66.08
28027;BME280;15344;52.342;-1.290;2023-08-06T11:08:55;100348.45;;;23.87;64.52
28027;BME280;15344;52.342;-1.290;2023-08-06T11:11:23;100349.28;;;23.67;60.83
28027;BME280;15344;52.342;-1.290;2023-08-06T11:13:48;100354.63;;;23.95;61.57
28027;BME280;15344;52.342;-1.290;2023-08-06T11:16:14;100352.83;;;24.10;60.54
28027;BME280;15344;52.342;-1.290;2023-08-06T11:18:40;100354.14;;;23.28;60.42
28027;BME280;15344;52.342;-1.290;2023-08-06T11:21:04;100351.01;;;23.52;62.31
28027;BME280;15344;52.342;-1.290;2023-08-06T11:23:30;100352.00;;;21.78;63.64
28027;BME280;15344;52.342;-1.290;2023-08-06T11:25:56;100350.05;;;23.47;63.54
28027;BME280;15344;52.342;-1.290;2023-08-06T11:28:22;100350.66;;;23.62;58.24
28027;BME280;15344;52.342;-1.290;2023-08-06T11:30:48;100355.44;;;23.11;59.38
28027;BME280;15344;52.342;-1.290;2023-08-06T11:33:14;100356.16;;;23.70;58.69
28027;BME280;15344;52.342;-1.290;2023-08-06T11:35:40;100359.83;;;22.58;60.14
28027;BME280;15344;52.342;-1.290;2023-08-06T11:38:06;100364.00;;;22.08;60.89
28027;BME280;15344;52.342;-1.290;2023-08-06T11:40:31;100362.41;;;22.16;61.36
28027;BME280;15344;52.342;-1.290;2023-08-06T11:42:55;100366.78;;;21.50;59.08
28027;BME280;15344;52.342;-1.290;2023-08-06T11:45:22;100365.23;;;21.48;59.72
28027;BME280;15344;52.342;-1.290;2023-08-06T11:47:50;100368.20;;;20.68;62.74
28027;BME280;15344;52.342;-1.290;2023-08-06T11:50:21;100369.65;;;21.12;61.96
28027;BME280;15344;52.342;-1.290;2023-08-06T11:52:39;100362.29;;;21.08;65.89
28027;BME280;15344;52.342;-1.290;2023-08-06T11:55:02;100367.34;;;20.04;68.21
28027;BME280;15344;52.342;-1.290;2023-08-06T11:57:25;100367.19;;;21.33;68.60
28027;BME280;15344;52.342;-1.290;2023-08-06T11:59:51;100371.51;;;21.81;64.61
28027;BME280;15344;52.342;-1.290;2023-08-06T12:02:16;100370.11;;;21.76;65.18
28027;BME280;15344;52.342;-1.290;2023-08-06T12:07:07;100372.86;;;22.70;67.26
28027;BME280;15344;52.342;-1.290;2023-08-06T12:09:31;100367.53;;;20.93;66.91
28027;BME280;15344;52.342;-1.290;2023-08-06T12:11:56;100369.96;;;20.98;70.30
28027;BME280;15344;52.342;-1.290;2023-08-06T12:14:21;100370.05;;;20.10;69.80
28027;BME280;15344;52.342;-1.290;2023-08-06T12:16:46;100366.85;;;21.31;73.79
28027;BME280;15344;52.342;-1.290;2023-08-06T12:19:12;100366.21;;;21.07;74.00
28027;BME280;15344;52.342;-1.290;2023-08-06T12:21:37;100368.38;;;20.37;70.96
28027;BME280;15344;52.342;-1.290;2023-08-06T12:24:02;100372.98;;;21.55;66.09
28027;BME280;15344;52.342;-1.290;2023-08-06T12:26:26;100375.91;;;22.29;68.60
28027;BME280;15344;52.342;-1.290;2023-08-06T12:28:52;100367.65;;;20.67;68.21
28027;BME280;15344;52.342;-1.290;2023-08-06T12:31:17;100375.99;;;22.06;67.16
28027;BME280;15344;52.342;-1.290;2023-08-06T12:33:42;100371.35;;;21.69;63.64
28027;BME280;15344;52.342;-1.290;2023-08-06T12:36:07;100367.80;;;20.82;61.58
28027;BME280;15344;52.342;-1.290;2023-08-06T12:38:32;100376.03;;;22.21;59.61